Time;durP1;ratioP1;P1;durP2;ratioP2;P2;SDS_P1;SDS_P2;PMS_P1;PMS_P2;Temp;Humidity;BMP_temperature;BMP_pressure;BME280_temperature;BME280_humidity;BME280_pressure;Samples;Min_cycle;Max_cycle;Signal;HPM_P1;HPM_P2
2023/11/14 00:01:33;;;;;;;16.17;2.50;;;;;;;;;;5109341;28;20027;-67
2023/11/14 00:03:59;;;;;;;11.20;2.50;;;;;;;;;;5110655;28;20360;-66
2023/11/14 00:06:25;;;;;;;13.30;2.42;;;;;;;;;;5111493;28;20020;-67
2023/11/14 00:08:51;;;;;;;16.40;2.53;;;;;;;;;;5095753;28;20020;-67
2023/11/14 00:11:17;;;;;;;15.80;2.63;;;;;;;;;;5099807;28;20020;-67
2023/11/14 00:13:43;;;;;;;16.38;2.03;;;;;;;;;;5108451;28;20011;-66
2023/11/14 00:16:09;;;;;;;14.95;2.95;;;;;;;;;;5103676;28;20052;-66
2023/11/14 00:18:36;;;;;;;16.42;2.40;;;;;;;;;;5129851;28;20086;-67
2023/11/14 00:21:02;;;;;;;14.35;2.10;;;;;;;;;;5131127;27;20099;-66
2023/11/14 00:23:28;;;;;;;12.60;2.13;;;;;;;;;;5130982;28;20483;-65
2023/11/14 00:25:54;;;;;;;14.85;2.58;;;;;;;;;;5131521;28;20102;-66
2023/11/14 00:28:20;;;;;;;11.32;2.72;;;;;;;;;;5131080;28;20762;-67
2023/11/14 00:30:46;;;;;;;15.43;2.30;;;;;;;;;;5122633;28;20054;-66
2023/11/14 00:33:12;;;;;;;12.93;2.45;;;;;;;;;;5112415;28;20424;-66
2023/11/14 00:35:38;;;;;;;12.35;2.42;;;;;;;;;;5127478;28;20026;-65
2023/11/14 00:38:04;;;;;;;10.25;1.98;;;;;;;;;;5130839;28;20333;-65
2023/11/14 00:40:30;;;;;;;13.77;2.97;;;;;;;;;;5131594;28;20016;-66
2023/11/14 00:42:56;;;;;;;13.80;2.47;;;;;;;;;;5129373;28;20515;-66
2023/11/14 00:45:25;;;;;;;15.45;2.90;;;;;;;;;;5131179;28;20064;-66
2023/11/14 00:47:50;;;;;;;6.13;1.83;;;;;;;;;;5132071;28;20072;-66
2023/11/14 00:50:17;;;;;;;10.05;2.03;;;;;;;;;;5129061;28;20027;-66
2023/11/14 00:52:46;;;;;;;11.75;2.22;;;;;;;;;;5131961;28;20475;-65
2023/11/14 00:55:12;;;;;;;9.30;2.60;;;;;;;;;;5131176;27;20404;-66
2023/11/14 00:57:38;;;;;;;17.15;2.05;;;;;;;;;;5131417;28;20102;-65
2023/11/14 01:00:05;;;;;;;12.88;2.45;;;;;;;;;;5130451;28;20018;-66
2023/11/14 01:02:31;;;;;;;14.85;2.60;;;;;;;;;;5128097;27;20443;-66
2023/11/14 01:04:57;;;;;;;10.30;2.17;;;;;;;;;;5137977;27;20019;-66
2023/11/14 01:07:23;;;;;;;11.65;2.47;;;;;;;;;;5134839;27;20452;-66
2023/11/14 01:09:49;;;;;;;12.88;2.28;;;;;;;;;;5134931;27;20034;-66
2023/11/14 01:12:15;;;;;;;10.63;1.98;;;;;;;;;;5134720;27;20019;-66
2023/11/14 01:14:41;;;;;;;10.80;1.98;;;;;;;;;;5135025;27;20158;-66
2023/11/14 01:17:07;;;;;;;7.78;1.90;;;;;;;;;;5132083;27;20054;-66
2023/11/14 01:19:38;;;;;;;12.43;2.08;;;;;;;;;;5134930;27;20018;-66
2023/11/14 01:22:04;;;;;;;15.50;2.35;;;;;;;;;;5135112;27;20011;-66
2023/11/14 01:24:30;;;;;;;9.48;2.10;;;;;;;;;;5134768;27;20513;-66
2023/11/14 01:26:56;;;;;;;10.90;1.83;;;;;;;;;;5117736;27;20130;-66
2023/11/14 01:29:22;;;;;;;11.43;2.30;;;;;;;;;;5134934;27;20043;-67
2023/11/14 01:31:48;;;;;;;11.90;2.33;;;;;;;;;;5134470;27;20007;-67
2023/11/14 01:34:14;;;;;;;11.80;2.58;;;;;;;;;;5129490;27;20420;-67
2023/11/14 01:36:40;;;;;;;12.40;1.70;;;;;;;;;;5135146;27;20023;-67
2023/11/14 01:39:06;;;;;;;10.43;2.10;;;;;;;;;;5133492;27;20019;-67
2023/11/14 01:41:33;;;;;;;11.80;2.33;;;;;;;;;;5131789;27;20337;-67
2023/11/14 01:43:59;;;;;;;13.15;2.03;;;;;;;;;;5133758;27;20023;-67
2023/11/14 01:46:25;;;;;;;10.05;2.38;;;;;;;;;;5134914;27;20019;-67
2023/11/14 01:48:52;;;;;;;9.88;2.38;;;;;;;;;;5133007;27;20019;-67
2023/11/14 01:51:19;;;;;;;9.93;1.80;;;;;;;;;;5133398;27;20196;-67
2023/11/14 01:53:46;;;;;;;8.77;1.20;;;;;;;;;;5134222;27;20498;-67
2023/11/14 01:56:12;;;;;;;11.38;1.77;;;;;;;;;;5133988;27;20023;-67
2023/11/14 01:58:38;;;;;;;11.75;2.28;;;;;;;;;;5133384;27;20133;-67
2023/11/14 02:01:04;;;;;;;14.80;2.45;;;;;;;;;;5132817;27;20360;-67
2023/11/14 02:03:31;;;;;;;12.98;2.35;;;;;;;;;;5134339;27;20015;-67
2023/11/14 02:05:57;;;;;;;15.20;2.38;;;;;;;;;;5134590;27;20058;-67
2023/11/14 02:08:23;;;;;;;11.90;2.20;;;;;;;;;;5133332;27;20417;-68
2023/11/14 02:10:49;;;;;;;15.02;2.63;;;;;;;;;;5134512;27;20047;-67
2023/11/14 02:13:15;;;;;;;12.07;2.58;;;;;;;;;;5132900;27;20026;-67
2023/11/14 02:15:41;;;;;;;9.73;2.20;;;;;;;;;;5132676;27;20019;-67
2023/11/14 02:18:08;;;;;;;11.73;2.10;;;;;;;;;;5132178;27;20079;-68
2023/11/14 02:20:34;;;;;;;15.23;3.00;;;;;;;;;;5134367;27;20403;-67
2023/11/14 02:23:03;;;;;;;9.48;2.08;;;;;;;;;;5132743;27;20023;-67
2023/11/14 02:25:29;;;;;;;10.68;2.13;;;;;;;;;;5122391;27;20456;-67
2023/11/14 02:27:55;;;;;;;12.68;1.85;;;;;;;;;;5133673;27;20376;-67
2023/11/14 02:30:21;;;;;;;13.27;2.90;;;;;;;;;;5132955;27;20026;-67
2023/11/14 02:32:47;;;;;;;17.73;2.60;;;;;;;;;;5131312;27;20038;-68
2023/11/14 02:35:13;;;;;;;12.15;2.25;;;;;;;;;;5131304;27;20015;-67
2023/11/14 02:37:39;;;;;;;9.52;1.70;;;;;;;;;;5134024;27;20068;-68
2023/11/14 02:40:05;;;;;;;11.48;2.03;;;;;;;;;;5132874;27;20023;-68
2023/11/14 02:42:31;;;;;;;12.88;2.13;;;;;;;;;;5131470;27;20018;-67
2023/11/14 02:44:57;;;;;;;9.80;2.38;;;;;;;;;;5132681;27;20015;-67
2023/11/14 02:47:24;;;;;;;11.25;2.28;;;;;;;;;;5133061;27;20054;-67
2023/11/14 02:50:05;;;;;;;12.45;2.53;;;;;;;;;;5131722;27;20019;-67
2023/11/14 02:52:35;;;;;;;14.95;2.13;;;;;;;;;;5134548;27;20460;-69
2023/11/14 02:55:01;;;;;;;12.50;2.08;;;;;;;;;;5132423;27;20065;-67
2023/11/14 02:57:27;;;;;;;12.48;2.08;;;;;;;;;;5132977;27;20027;-68
2023/11/14 02:59:53;;;;;;;14.60;3.20;;;;;;;;;;5133134;27;20047;-68
2023/11/14 03:02:19;;;;;;;9.25;2.03;;;;;;;;;;5132301;27;20080;-67
2023/11/14 03:04:45;;;;;;;10.88;2.28;;;;;;;;;;5134061;27;20011;-67
2023/11/14 03:07:11;;;;;;;12.30;2.40;;;;;;;;;;5133857;27;20056;-67
2023/11/14 03:09:37;;;;;;;15.27;2.47;;;;;;;;;;5132775;27;20019;-67
2023/11/14 03:12:03;;;;;;;22.05;3.10;;;;;;;;;;5132319;27;20015;-68
2023/11/14 03:14:29;;;;;;;9.85;1.95;;;;;;;;;;5132736;27;20103;-67
2023/11/14 03:16:55;;;;;;;8.57;1.65;;;;;;;;;;5130831;27;20069;-67
2023/11/14 03:19:21;;;;;;;13.02;2.60;;;;;;;;;;5132508;27;20464;-67
2023/11/14 03:21:48;;;;;;;10.93;2.30;;;;;;;;;;5133317;27;20276;-67
2023/11/14 03:24:14;;;;;;;16.33;2.33;;;;;;;;;;5130830;27;20050;-67
2023/11/14 03:26:40;;;;;;;13.52;2.38;;;;;;;;;;5133826;27;20028;-67
2023/11/14 03:29:10;;;;;;;13.63;2.30;;;;;;;;;;5124088;27;20012;-67
2023/11/14 03:31:36;;;;;;;14.55;2.38;;;;;;;;;;5132071;27;20460;-67
2023/11/14 03:34:02;;;;;;;11.00;2.97;;;;;;;;;;5128843;27;20062;-67
2023/11/14 03:36:28;;;;;;;12.93;2.20;;;;;;;;;;5124784;27;20054;-67
2023/11/14 03:38:54;;;;;;;11.63;2.05;;;;;;;;;;5132713;27;20015;-66
2023/11/14 03:41:20;;;;;;;11.75;2.53;;;;;;;;;;5130360;27;20741;-67
2023/11/14 03:43:46;;;;;;;12.55;2.00;;;;;;;;;;5129960;27;20050;-67
2023/11/14 03:46:12;;;;;;;11.45;2.80;;;;;;;;;;5128374;27;20375;-67
2023/11/14 03:48:38;;;;;;;19.00;2.40;;;;;;;;;;5125953;27;20019;-67
2023/11/14 03:51:09;;;;;;;10.60;2.25;;;;;;;;;;5126237;27;20022;-67
2023/11/14 03:53:35;;;;;;;9.00;1.75;;;;;;;;;;5126277;27;20016;-66
2023/11/14 03:56:01;;;;;;;16.38;2.30;;;;;;;;;;5124916;27;20080;-67
2023/11/14 03:58:27;;;;;;;10.68;2.53;;;;;;;;;;5128146;27;20022;-67
2023/11/14 04:00:53;;;;;;;13.52;1.80;;;;;;;;;;5129038;27;20046;-66
2023/11/14 04:03:19;;;;;;;10.30;1.90;;;;;;;;;;5124794;27;20062;-67
2023/11/14 04:05:45;;;;;;;10.48;2.15;;;;;;;;;;5132120;27;20028;-67
2023/11/14 04:08:11;;;;;;;13.27;2.13;;;;;;;;;;5120813;28;20054;-66
2023/11/14 04:10:37;;;;;;;13.65;2.22;;;;;;;;;;5124448;28;20387;-66
2023/11/14 04:13:03;;;;;;;9.38;2.00;;;;;;;;;;5131092;28;20018;-66
2023/11/14 04:15:31;;;;;;;8.98;2.33;;;;;;;;;;5130609;28;20046;-66
2023/11/14 04:17:57;;;;;;;8.98;1.85;;;;;;;;;;5131111;28;20479;-66
2023/11/14 04:20:23;;;;;;;8.20;1.95;;;;;;;;;;5130970;28;20020;-66
2023/11/14 04:22:49;;;;;;;8.48;1.85;;;;;;;;;;5132331;28;20019;-66
2023/11/14 04:25:15;;;;;;;7.70;1.60;;;;;;;;;;5130277;28;20345;-67
2023/11/14 04:27:41;;;;;;;10.75;1.90;;;;;;;;;;5132335;28;20080;-66
2023/11/14 04:30:08;;;;;;;11.38;1.92;;;;;;;;;;5130892;28;20012;-67
2023/11/14 04:32:34;;;;;;;6.78;1.80;;;;;;;;;;5131362;28;20023;-66
2023/11/14 04:35:00;;;;;;;9.02;2.30;;;;;;;;;;5133813;27;20019;-66
2023/11/14 04:37:26;;;;;;;11.48;1.85;;;;;;;;;;5134673;27;20023;-66
2023/11/14 04:39:53;;;;;;;7.80;1.77;;;;;;;;;;5135128;27;20423;-67
2023/11/14 04:42:18;;;;;;;8.65;1.75;;;;;;;;;;5131600;27;20022;-67
2023/11/14 04:44:45;;;;;;;16.73;2.72;;;;;;;;;;5125820;27;20023;-67
2023/11/14 04:47:11;;;;;;;9.88;2.15;;;;;;;;;;5128157;27;20015;-67
2023/11/14 04:49:37;;;;;;;10.57;2.45;;;;;;;;;;5129079;27;20069;-67
2023/11/14 04:52:03;;;;;;;9.88;2.10;;;;;;;;;;5131735;27;20007;-67
2023/11/14 04:54:29;;;;;;;9.65;2.28;;;;;;;;;;5116433;27;20398;-67
2023/11/14 04:56:55;;;;;;;8.88;2.05;;;;;;;;;;5131018;27;20019;-68
2023/11/14 04:59:21;;;;;;;9.80;2.10;;;;;;;;;;5129150;27;21206;-65
2023/11/14 05:01:47;;;;;;;10.10;2.53;;;;;;;;;;5129199;27;20106;-67
2023/11/14 05:04:13;;;;;;;12.55;2.53;;;;;;;;;;5125116;27;20020;-67
2023/11/14 05:06:39;;;;;;;6.18;1.98;;;;;;;;;;5133673;27;20106;-66
2023/11/14 05:09:05;;;;;;;9.60;2.28;;;;;;;;;;5126005;27;20151;-67
2023/11/14 05:11:36;;;;;;;6.43;1.63;;;;;;;;;;5126815;27;20456;-67
2023/11/14 05:14:02;;;;;;;13.48;2.28;;;;;;;;;;5131010;27;20019;-67
2023/11/14 05:16:28;;;;;;;17.50;2.80;;;;;;;;;;5125949;27;20418;-66
2023/11/14 05:18:54;;;;;;;5.82;2.05;;;;;;;;;;5113497;28;20081;-67
2023/11/14 05:21:20;;;;;;;6.38;2.10;;;;;;;;;;5113465;28;20027;-66
2023/11/14 05:23:48;;;;;;;8.70;1.88;;;;;;;;;;5113104;27;20095;-66
2023/11/14 05:26:14;;;;;;;11.85;2.40;;;;;;;;;;5114764;27;20028;-66
2023/11/14 05:28:40;;;;;;;7.65;2.00;;;;;;;;;;5114463;28;20103;-67
2023/11/14 05:31:07;;;;;;;9.75;2.35;;;;;;;;;;5113855;28;20020;-66
2023/11/14 05:33:33;;;;;;;9.07;2.10;;;;;;;;;;5112789;27;20023;-66
2023/11/14 05:35:59;;;;;;;9.88;2.10;;;;;;;;;;5101768;27;20081;-66
2023/11/14 05:38:27;;;;;;;6.63;1.60;;;;;;;;;;5113855;28;20031;-66
2023/11/14 05:40:53;;;;;;;8.35;1.67;;;;;;;;;;5114256;28;20470;-66
2023/11/14 05:43:19;;;;;;;7.57;1.83;;;;;;;;;;5113467;27;20609;-66
2023/11/14 05:45:45;;;;;;;7.75;1.63;;;;;;;;;;5113978;28;20034;-66
2023/11/14 05:48:12;;;;;;;6.88;1.80;;;;;;;;;;5112281;28;20008;-66
2023/11/14 05:50:38;;;;;;;6.30;1.63;;;;;;;;;;5102423;28;20024;-65
2023/11/14 05:53:04;;;;;;;11.77;2.05;;;;;;;;;;5113097;28;20020;-66
2023/11/14 05:55:30;;;;;;;11.82;1.90;;;;;;;;;;5114266;28;20015;-69
2023/11/14 05:57:56;;;;;;;7.60;1.67;;;;;;;;;;5114035;28;20015;-66
2023/11/14 06:00:24;;;;;;;8.85;2.10;;;;;;;;;;5112730;27;20024;-69
2023/11/14 06:02:50;;;;;;;6.47;2.13;;;;;;;;;;5114209;28;20019;-69
2023/11/14 06:05:16;;;;;;;8.90;1.88;;;;;;;;;;5112194;28;20015;-68
2023/11/14 06:07:42;;;;;;;6.05;1.40;;;;;;;;;;5114012;28;20056;-73
2023/11/14 06:10:09;;;;;;;10.48;1.75;;;;;;;;;;5104797;28;20016;-67
2023/11/14 06:12:35;;;;;;;9.13;2.00;;;;;;;;;;5113964;28;20423;-66
2023/11/14 06:15:01;;;;;;;8.43;1.73;;;;;;;;;;5112512;28;20019;-68
2023/11/14 06:17:27;;;;;;;11.88;2.17;;;;;;;;;;5127671;27;20031;-66
2023/11/14 06:19:53;;;;;;;12.95;2.28;;;;;;;;;;5133371;27;20364;-68
2023/11/14 06:22:19;;;;;;;9.85;2.03;;;;;;;;;;5133603;27;20028;-67
2023/11/14 06:24:45;;;;;;;7.38;1.60;;;;;;;;;;5133352;27;20094;-68
2023/11/14 06:27:11;;;;;;;6.68;1.50;;;;;;;;;;5132606;27;20023;-67
2023/11/14 06:29:37;;;;;;;7.65;2.63;;;;;;;;;;5133289;27;20372;-68
2023/11/14 06:32:03;;;;;;;13.35;1.77;;;;;;;;;;5132493;27;20027;-73
2023/11/14 06:34:29;;;;;;;10.52;2.13;;;;;;;;;;5133210;27;20030;-73
2023/11/14 06:36:55;;;;;;;5.63;1.35;;;;;;;;;;5133861;27;20022;-74
2023/11/14 06:39:21;;;;;;;10.25;2.97;;;;;;;;;;5130239;27;20098;-68
2023/11/14 06:41:51;;;;;;;10.15;1.58;;;;;;;;;;5131517;27;20494;-73
2023/11/14 06:44:18;;;;;;;8.87;1.90;;;;;;;;;;5132570;27;20068;-67
2023/11/14 06:46:45;;;;;;;9.23;1.58;;;;;;;;;;5128304;27;20019;-68
2023/11/14 06:49:11;;;;;;;7.55;1.38;;;;;;;;;;5132015;27;20050;-67
2023/11/14 06:51:37;;;;;;;5.22;1.60;;;;;;;;;;5133399;27;20496;-68
2023/11/14 06:54:03;;;;;;;6.85;1.40;;;;;;;;;;5132209;27;20058;-68
2023/11/14 06:56:29;;;;;;;6.25;1.42;;;;;;;;;;5133346;27;20027;-67
2023/11/14 06:58:55;;;;;;;6.95;1.83;;;;;;;;;;5131657;27;20056;-67
2023/11/14 07:01:21;;;;;;;9.60;2.22;;;;;;;;;;5132300;27;20016;-67
2023/11/14 07:03:49;;;;;;;5.80;1.20;;;;;;;;;;5132585;27;20026;-68
2023/11/14 07:06:16;;;;;;;6.95;1.40;;;;;;;;;;5131500;27;20027;-67
2023/11/14 07:08:42;;;;;;;4.55;1.35;;;;;;;;;;5132660;27;20011;-67
2023/11/14 07:11:10;;;;;;;5.05;1.00;;;;;;;;;;5132086;27;20079;-68
2023/11/14 07:13:37;;;;;;;6.70;1.60;;;;;;;;;;5132433;27;20011;-67
2023/11/14 07:16:04;;;;;;;4.88;1.27;;;;;;;;;;5131730;27;20063;-68
2023/11/14 07:18:30;;;;;;;4.43;1.02;;;;;;;;;;5132304;27;20075;-67
2023/11/14 07:20:56;;;;;;;5.57;1.33;;;;;;;;;;5131717;27;20026;-67
2023/11/14 07:23:22;;;;;;;4.20;1.23;;;;;;;;;;5129132;27;20038;-67
2023/11/14 07:25:48;;;;;;;5.85;1.67;;;;;;;;;;5132355;27;20448;-67
2023/11/14 07:28:14;;;;;;;6.28;1.05;;;;;;;;;;5130706;27;20027;-67
2023/11/14 07:30:40;;;;;;;2.25;0.98;;;;;;;;;;5128433;27;20046;-68
2023/11/14 07:33:08;;;;;;;5.15;1.10;;;;;;;;;;5130799;27;20098;-68
2023/11/14 07:35:37;;;;;;;3.67;1.00;;;;;;;;;;5132622;27;20268;-68
2023/11/14 07:38:03;;;;;;;2.95;1.05;;;;;;;;;;5130785;27;20456;-67
2023/11/14 07:40:29;;;;;;;7.15;1.65;;;;;;;;;;5132078;27;20409;-67
2023/11/14 07:42:55;;;;;;;3.65;0.88;;;;;;;;;;5120930;27;20022;-67
2023/11/14 07:45:21;;;;;;;4.38;1.20;;;;;;;;;;5131563;27;20436;-67
2023/11/14 07:47:48;;;;;;;3.78;0.90;;;;;;;;;;5132315;27;20052;-67
2023/11/14 07:50:14;;;;;;;9.50;1.45;;;;;;;;;;5130708;27;20352;-67
2023/11/14 07:52:40;;;;;;;6.68;1.17;;;;;;;;;;5132192;27;20056;-67
2023/11/14 07:55:08;;;;;;;4.38;0.77;;;;;;;;;;5131148;27;20023;-68
2023/11/14 07:57:35;;;;;;;4.93;1.00;;;;;;;;;;5129590;27;20420;-68
2023/11/14 08:00:01;;;;;;;3.28;1.10;;;;;;;;;;5125706;27;20013;-67
2023/11/14 08:02:27;;;;;;;8.45;1.38;;;;;;;;;;5123640;27;20012;-66
2023/11/14 08:04:53;;;;;;;5.38;1.10;;;;;;;;;;5131466;27;20035;-66
2023/11/14 08:07:19;;;;;;;7.32;1.35;;;;;;;;;;5130799;27;20102;-67
2023/11/14 08:09:45;;;;;;;6.15;1.00;;;;;;;;;;5131939;28;20018;-67
2023/11/14 08:12:11;;;;;;;5.50;1.10;;;;;;;;;;5127206;27;20444;-66
2023/11/14 08:14:39;;;;;;;3.53;0.70;;;;;;;;;;5131236;28;20015;-66
2023/11/14 08:17:05;;;;;;;7.35;1.17;;;;;;;;;;5130543;27;20035;-66
2023/11/14 08:19:31;;;;;;;5.78;0.80;;;;;;;;;;5131625;28;20439;-66
2023/11/14 08:22:03;;;;;;;5.47;1.10;;;;;;;;;;5131088;28;20051;-67
2023/11/14 08:24:29;;;;;;;7.43;1.00;;;;;;;;;;5129868;28;20073;-67
2023/11/14 08:26:55;;;;;;;4.65;1.10;;;;;;;;;;5125304;28;20098;-67
2023/11/14 08:29:23;;;;;;;7.60;1.45;;;;;;;;;;5129857;28;20018;-67
2023/11/14 08:31:49;;;;;;;5.63;1.95;;;;;;;;;;5104401;28;20467;-68
2023/11/14 08:34:15;;;;;;;5.82;1.40;;;;;;;;;;5128403;28;20848;-67
2023/11/14 08:36:41;;;;;;;10.63;1.63;;;;;;;;;;5131084;28;20019;-67
2023/11/14 08:39:12;;;;;;;6.28;1.27;;;;;;;;;;5130418;28;20472;-68
2023/11/14 08:41:38;;;;;;;4.57;1.17;;;;;;;;;;5132058;28;20326;-67
2023/11/14 08:44:04;;;;;;;6.80;0.98;;;;;;;;;;5130769;28;20018;-67
2023/11/14 08:46:30;;;;;;;7.90;1.30;;;;;;;;;;5130069;28;20042;-67
2023/11/14 08:48:56;;;;;;;4.40;1.30;;;;;;;;;;5126742;28;20019;-66
2023/11/14 08:51:22;;;;;;;8.55;0.90;;;;;;;;;;5130991;28;20023;-66
2023/11/14 08:53:48;;;;;;;4.75;0.73;;;;;;;;;;5130848;28;20007;-67
2023/11/14 08:56:14;;;;;;;4.55;0.93;;;;;;;;;;5131094;28;20015;-67
2023/11/14 08:58:40;;;;;;;7.30;1.02;;;;;;;;;;5131284;28;20027;-67
2023/11/14 09:01:06;;;;;;;3.88;1.05;;;;;;;;;;5129815;28;20022;-67
2023/11/14 09:03:32;;;;;;;5.75;1.13;;;;;;;;;;5122683;28;20068;-68
2023/11/14 09:05:58;;;;;;;7.18;0.70;;;;;;;;;;5129604;28;20031;-67
2023/11/14 09:08:25;;;;;;;4.50;0.90;;;;;;;;;;5129866;28;20520;-67
2023/11/14 09:10:50;;;;;;;2.88;0.73;;;;;;;;;;5130824;28;20027;-67
2023/11/14 09:13:16;;;;;;;8.73;1.10;;;;;;;;;;5130034;28;20586;-67
2023/11/14 09:15:42;;;;;;;7.13;1.10;;;;;;;;;;5131471;28;20045;-67
2023/11/14 09:18:10;;;;;;;3.95;0.98;;;;;;;;;;5129300;28;20043;-67
2023/11/14 09:20:36;;;;;;;5.05;1.02;;;;;;;;;;5129165;28;20375;-67
2023/11/14 09:23:04;;;;;;;6.57;1.30;;;;;;;;;;5127742;27;20408;-67
2023/11/14 09:25:30;;;;;;;6.38;1.50;;;;;;;;;;5134795;27;20023;-67
2023/11/14 09:27:56;;;;;;;5.25;1.15;;;;;;;;;;5127896;27;20037;-67
2023/11/14 09:30:23;;;;;;;4.32;1.35;;;;;;;;;;5133904;27;20106;-68
2023/11/14 09:32:49;;;;;;;16.20;1.60;;;;;;;;;;5132912;27;20276;-67
2023/11/14 09:35:15;;;;;;;3.22;0.75;;;;;;;;;;5121950;27;20124;-67
2023/11/14 09:37:42;;;;;;;9.90;0.88;;;;;;;;;;5129663;27;20092;-67
2023/11/14 09:40:08;;;;;;;6.60;1.02;;;;;;;;;;5126056;27;20371;-67
2023/11/14 09:42:38;;;;;;;3.58;0.63;;;;;;;;;;5134636;27;20094;-67
2023/11/14 09:45:04;;;;;;;3.35;0.75;;;;;;;;;;5132064;27;20072;-67
2023/11/14 09:47:31;;;;;;;4.50;0.80;;;;;;;;;;5134774;27;20106;-67
2023/11/14 09:49:58;;;;;;;7.28;0.82;;;;;;;;;;5133653;27;20041;-67
2023/11/14 09:52:24;;;;;;;3.42;1.10;;;;;;;;;;5130867;27;20040;-67
2023/11/14 09:54:50;;;;;;;4.43;0.85;;;;;;;;;;5133990;27;20026;-67
2023/11/14 09:57:18;;;;;;;3.03;0.80;;;;;;;;;;5133498;27;20110;-66
2023/11/14 09:59:45;;;;;;;4.07;0.98;;;;;;;;;;5133380;27;20018;-67
2023/11/14 10:02:11;;;;;;;4.00;1.20;;;;;;;;;;5125032;27;20055;-66
2023/11/14 10:04:43;;;;;;;1.42;0.70;;;;;;;;;;5125621;27;20011;-66
2023/11/14 10:07:09;;;;;;;3.05;0.85;;;;;;;;;;5132424;27;20042;-66
2023/11/14 10:09:40;;;;;;;5.03;1.02;;;;;;;;;;5118351;27;20023;-66
2023/11/14 10:12:06;;;;;;;;;;;;;;;;;;5133936;27;20033;-68
2023/11/14 10:14:43;;;;;;;4.65;1.20;;;;;;;;;;5133677;27;19942;-67
2023/11/14 10:17:12;;;;;;;2.55;0.80;;;;;;;;;;5133040;27;20507;-67
2023/11/14 10:19:38;;;;;;;5.95;1.15;;;;;;;;;;5133684;27;20015;-67
2023/11/14 10:22:05;;;;;;;3.70;0.80;;;;;;;;;;5129924;27;20468;-67
2023/11/14 10:24:31;;;;;;;6.47;1.10;;;;;;;;;;5133330;27;20083;-66
2023/11/14 10:26:59;;;;;;;7.93;1.05;;;;;;;;;;5133730;27;20517;-67
2023/11/14 10:29:25;;;;;;;7.30;1.52;;;;;;;;;;5132984;27;20007;-67
2023/11/14 10:31:52;;;;;;;6.32;1.00;;;;;;;;;;5132086;27;20038;-67
2023/11/14 10:34:31;;;;;;;5.78;1.27;;;;;;;;;;5124936;27;20027;-67
2023/11/14 10:36:58;;;;;;;4.20;0.90;;;;;;;;;;5129609;27;20048;-67
2023/11/14 10:39:25;;;;;;;6.18;1.20;;;;;;;;;;5123446;27;20007;-67
2023/11/14 10:41:52;;;;;;;5.43;1.38;;;;;;;;;;5133456;27;20480;-67
2023/11/14 10:44:18;;;;;;;6.75;1.08;;;;;;;;;;5131936;27;20558;-66
2023/11/14 10:46:48;;;;;;;2.83;1.10;;;;;;;;;;5133401;27;20027;-67
2023/11/14 10:49:14;;;;;;;;;;;;;;;;;;5132208;27;20068;-66
2023/11/14 10:51:41;;;;;;;3.95;0.70;;;;;;;;;;5124487;27;19907;-67
2023/11/14 10:54:08;;;;;;;5.15;0.95;;;;;;;;;;5126732;27;20360;-67
2023/11/14 10:56:37;;;;;;;5.28;0.70;;;;;;;;;;5133035;27;20026;-66
2023/11/14 10:59:04;;;;;;;3.87;0.73;;;;;;;;;;5131761;27;20048;-67
2023/11/14 11:01:32;;;;;;;1.98;0.70;;;;;;;;;;5133123;27;20029;-68
2023/11/14 11:03:59;;;;;;;3.03;1.20;;;;;;;;;;5123853;27;20056;-68
2023/11/14 11:06:26;;;;;;;3.42;0.70;;;;;;;;;;5126556;27;20034;-68
2023/11/14 11:08:53;;;;;;;3.55;1.02;;;;;;;;;;5131972;27;20040;-68
2023/11/14 11:11:20;;;;;;;5.40;0.98;;;;;;;;;;5129158;27;20011;-68
2023/11/14 11:13:47;;;;;;;6.95;1.13;;;;;;;;;;5131590;27;20007;-67
2023/11/14 11:16:13;;;;;;;4.05;0.90;;;;;;;;;;5118581;27;20177;-67
2023/11/14 11:18:41;;;;;;;4.72;0.90;;;;;;;;;;5101224;28;20368;-68
2023/11/14 11:21:11;;;;;;;4.70;0.98;;;;;;;;;;5110696;28;20462;-68
2023/11/14 11:23:37;;;;;;;;;;;;;;;;;;5112456;27;20125;-67
2023/11/14 11:26:13;;;;;;;5.38;1.20;;;;;;;;;;5110933;28;20006;-67
2023/11/14 11:28:43;;;;;;;3.67;1.30;;;;;;;;;;5104418;28;20034;-67
2023/11/14 11:31:11;;;;;;;3.20;0.90;;;;;;;;;;5106285;28;20024;-67
2023/11/14 11:33:44;;;;;;;6.05;1.73;;;;;;;;;;5103687;28;20047;-67
2023/11/14 11:36:25;;;;;;;4.50;1.35;;;;;;;;;;5110416;28;20057;-67
2023/11/14 11:38:54;;;;;;;4.20;1.02;;;;;;;;;;5106438;28;20099;-67
2023/11/14 11:41:20;;;;;;;2.95;1.15;;;;;;;;;;5098735;28;20084;-67
2023/11/14 11:43:46;;;;;;;8.27;1.20;;;;;;;;;;5111676;28;20027;-67
2023/11/14 11:46:35;;;;;;;5.88;1.02;;;;;;;;;;5110540;28;20027;-67
2023/11/14 11:49:10;;;;;;;4.57;1.25;;;;;;;;;;5107273;28;20463;-67
2023/11/14 11:51:43;;;;;;;3.50;0.70;;;;;;;;;;5110908;28;20030;-67
2023/11/14 11:54:28;;;;;;;3.50;1.10;;;;;;;;;;5105988;28;20024;-67
2023/11/14 11:57:06;;;;;;;4.47;1.20;;;;;;;;;;5108662;28;20549;-68
2023/11/14 11:59:41;;;;;;;5.95;1.52;;;;;;;;;;5097352;28;20413;-67
2023/11/14 12:02:10;;;;;;;4.53;1.23;;;;;;;;;;5110839;28;20350;-67
2023/11/14 12:04:37;;;;;;;3.58;1.05;;;;;;;;;;5100948;28;20024;-67
2023/11/14 12:07:03;;;;;;;3.45;0.95;;;;;;;;;;5103924;28;20301;-68
2023/11/14 12:09:31;;;;;;;4.53;1.30;;;;;;;;;;5110213;28;20149;-67
2023/11/14 12:11:57;;;;;;;5.10;1.02;;;;;;;;;;5110198;28;20023;-67
2023/11/14 12:14:23;;;;;;;6.18;1.20;;;;;;;;;;5110908;28;20047;-68
2023/11/14 12:16:49;;;;;;;7.65;1.20;;;;;;;;;;5110602;28;20551;-67
2023/11/14 12:19:15;;;;;;;3.85;1.10;;;;;;;;;;5088833;28;20076;-67
2023/11/14 12:21:47;;;;;;;5.35;1.17;;;;;;;;;;5111383;28;20015;-67
2023/11/14 12:24:13;;;;;;;3.83;1.05;;;;;;;;;;5109771;28;20098;-67
2023/11/14 12:26:40;;;;;;;4.45;1.00;;;;;;;;;;5105982;28;20036;-67
2023/11/14 12:29:12;;;;;;;6.63;1.17;;;;;;;;;;5104207;28;20020;-67
2023/11/14 12:31:39;;;;;;;4.63;1.20;;;;;;;;;;5111508;28;20019;-67
2023/11/14 12:34:08;;;;;;;6.45;1.63;;;;;;;;;;5109322;28;20357;-66
2023/11/14 12:36:34;;;;;;;4.47;1.43;;;;;;;;;;5111060;28;20047;-67
2023/11/14 12:39:15;;;;;;;3.45;0.95;;;;;;;;;;5109804;28;20014;-67
2023/11/14 12:41:45;;;;;;;6.90;1.33;;;;;;;;;;5091385;28;20464;-67
2023/11/14 12:44:12;;;;;;;4.30;1.08;;;;;;;;;;5101571;28;20051;-67
2023/11/14 12:46:39;;;;;;;4.60;1.15;;;;;;;;;;5108076;28;20046;-67
2023/11/14 12:49:10;;;;;;;4.45;1.30;;;;;;;;;;5109174;28;20023;-67
2023/11/14 12:51:36;;;;;;;7.45;1.45;;;;;;;;;;5105982;28;20016;-66
2023/11/14 12:54:02;;;;;;;10.82;1.52;;;;;;;;;;5096200;28;20017;-67
2023/11/14 12:56:28;;;;;;;5.97;1.33;;;;;;;;;;5106460;28;20018;-67
2023/11/14 12:58:56;;;;;;;4.95;1.00;;;;;;;;;;5113411;28;20419;-67
2023/11/14 13:01:22;;;;;;;3.67;1.10;;;;;;;;;;5110815;28;20449;-67
2023/11/14 13:03:48;;;;;;;7.10;1.00;;;;;;;;;;5111751;27;20023;-67
2023/11/14 13:06:16;;;;;;;6.20;1.30;;;;;;;;;;5113372;28;20061;-66
2023/11/14 13:08:42;;;;;;;5.35;1.30;;;;;;;;;;5113840;28;20030;-67
2023/11/14 13:11:08;;;;;;;4.82;1.13;;;;;;;;;;5093557;28;20030;-69
2023/11/14 13:13:34;;;;;;;6.63;1.30;;;;;;;;;;5107267;28;20087;-68
2023/11/14 13:16:00;;;;;;;8.50;1.38;;;;;;;;;;5106496;28;20020;-67
2023/11/14 13:18:28;;;;;;;8.13;1.45;;;;;;;;;;5130360;27;20038;-67
2023/11/14 13:20:54;;;;;;;9.35;1.20;;;;;;;;;;5134847;27;20023;-64
2023/11/14 13:23:20;;;;;;;8.32;1.63;;;;;;;;;;5133794;27;20656;-67
2023/11/14 13:25:46;;;;;;;4.18;1.00;;;;;;;;;;5132074;27;20015;-66
2023/11/14 13:28:11;;;;;;;2.15;0.90;;;;;;;;;;5133720;27;20094;-67
2023/11/14 13:30:37;;;;;;;6.93;1.10;;;;;;;;;;5133877;27;20031;-66
2023/11/14 13:33:05;;;;;;;3.65;0.93;;;;;;;;;;5133036;27;20030;-67
2023/11/14 13:35:31;;;;;;;4.25;1.20;;;;;;;;;;5130292;27;20112;-67
2023/11/14 13:37:56;;;;;;;5.95;1.13;;;;;;;;;;5116239;27;20060;-67
2023/11/14 13:40:24;;;;;;;3.95;1.00;;;;;;;;;;5133797;27;20019;-67
2023/11/14 13:42:50;;;;;;;3.78;0.90;;;;;;;;;;5133599;27;20019;-69
2023/11/14 13:45:16;;;;;;;3.20;1.08;;;;;;;;;;5133194;27;20019;-67
2023/11/14 13:47:42;;;;;;;4.03;0.80;;;;;;;;;;5128955;27;20024;-67
2023/11/14 13:50:10;;;;;;;6.63;1.15;;;;;;;;;;5133304;27;20112;-68
2023/11/14 13:52:36;;;;;;;4.78;1.23;;;;;;;;;;5133839;27;20405;-68
2023/11/14 13:55:03;;;;;;;6.07;1.15;;;;;;;;;;5132678;27;20094;-73
2023/11/14 13:57:29;;;;;;;10.30;1.98;;;;;;;;;;5128956;27;20019;-67
2023/11/14 13:59:55;;;;;;;3.83;0.80;;;;;;;;;;5130118;27;20011;-67
2023/11/14 14:02:22;;;;;;;4.95;0.93;;;;;;;;;;5132269;27;20038;-67
2023/11/14 14:04:48;;;;;;;4.28;1.00;;;;;;;;;;5132522;27;20023;-67
2023/11/14 14:07:14;;;;;;;4.07;0.85;;;;;;;;;;5131325;27;20500;-67
2023/11/14 14:09:40;;;;;;;3.53;1.02;;;;;;;;;;5132380;27;20044;-67
2023/11/14 14:12:06;;;;;;;6.40;0.88;;;;;;;;;;5133279;27;20107;-68
2023/11/14 14:14:32;;;;;;;7.93;1.48;;;;;;;;;;5132972;27;20478;-67
2023/11/14 14:16:58;;;;;;;5.07;1.15;;;;;;;;;;5132389;27;20031;-68
2023/11/14 14:19:25;;;;;;;5.88;2.25;;;;;;;;;;5132953;27;20046;-68
2023/11/14 14:21:53;;;;;;;4.85;1.10;;;;;;;;;;5134045;27;20023;-74
2023/11/14 14:24:19;;;;;;;10.13;1.60;;;;;;;;;;5132484;27;20027;-68
2023/11/14 14:26:45;;;;;;;6.05;1.20;;;;;;;;;;5133174;27;20023;-76
2023/11/14 14:29:12;;;;;;;8.68;1.73;;;;;;;;;;5130551;27;20464;-67
2023/11/14 14:31:40;;;;;;;8.90;1.60;;;;;;;;;;5133148;27;20018;-67
2023/11/14 14:34:06;;;;;;;9.27;2.10;;;;;;;;;;5130293;27;20011;-67
2023/11/14 14:36:32;;;;;;;9.95;2.13;;;;;;;;;;5125058;27;20026;-67
2023/11/14 14:38:58;;;;;;;8.32;2.03;;;;;;;;;;5132561;27;20021;-67